sensor_id;sensor_type;location;lat;lon;timestamp;pressure;altitude;pressure_sealevel;temperature;humidity
60725;BME280;59881;36.722;-4.462;2023-01-01T00:01:20;101588.78;;;7.51;51.41
60725;BME280;59881;36.722;-4.462;2023-01-01T00:03:50;101902.13;;;10.26;51.13
60725;BME280;59881;36.722;-4.462;2023-01-01T00:06:16;101371.47;;;6.80;50.99
60725;BME280;59881;36.722;-4.462;2023-01-01T00:08:42;101392.78;;;7.15;51.40
60725;BME280;59881;36.722;-4.462;2023-01-01T00:11:08;101943.66;;;10.21;52.06
60725;BME280;59881;36.722;-4.462;2023-01-01T00:13:36;101920.00;;;10.19;51.66
60725;BME280;59881;36.722;-4.462;2023-01-01T00:16:12;101485.66;;;7.73;51.83
60725;BME280;59881;36.722;-4.462;2023-01-01T00:18:39;101517.44;;;7.21;52.02
60725;BME280;59881;36.722;-4.462;2023-01-01T00:21:10;101834.97;;;9.78;52.34
60725;BME280;59881;36.722;-4.462;2023-01-01T00:23:36;101899.94;;;10.17;52.55
60725;BME280;59881;36.722;-4.462;2023-01-01T00:26:09;101896.41;;;10.16;52.57
60725;BME280;59881;36.722;-4.462;2023-01-01T00:28:34;101901.78;;;10.14;52.83
60725;BME280;59881;36.722;-4.462;2023-01-01T00:31:09;101345.88;;;6.43;52.39
60725;BME280;59881;36.722;-4.462;2023-01-01T00:33:35;101291.19;;;6.35;52.37
60725;BME280;59881;36.722;-4.462;2023-01-01T00:36:12;101900.63;;;10.20;52.70
60725;BME280;59881;36.722;-4.462;2023-01-01T00:38:38;101895.25;;;10.23;52.60
60725;BME280;59881;36.722;-4.462;2023-01-01T00:41:04;101859.06;;;10.08;52.59
60725;BME280;59881;36.722;-4.462;2023-01-01T00:43:30;101891.59;;;10.26;52.22
60725;BME280;59881;36.722;-4.462;2023-01-01T00:45:55;101853.13;;;10.03;52.10
60725;BME280;59881;36.722;-4.462;2023-01-01T00:48:21;101845.41;;;10.00;52.07
60725;BME280;59881;36.722;-4.462;2023-01-01T00:50:48;101003.41;;;5.06;50.95
60725;BME280;59881;36.722;-4.462;2023-01-01T00:53:14;101929.88;;;10.34;50.81
60725;BME280;59881;36.722;-4.462;2023-01-01T00:55:41;102061.09;;;10.04;50.83
60725;BME280;59881;36.722;-4.462;2023-01-01T00:58:07;101872.31;;;10.25;50.68
60725;BME280;59881;36.722;-4.462;2023-01-01T01:00:33;101876.66;;;10.26;51.21
60725;BME280;59881;36.722;-4.462;2023-01-01T01:02:59;101416.59;;;7.52;50.95
60725;BME280;59881;36.722;-4.462;2023-01-01T01:05:25;101838.28;;;10.02;50.86
60725;BME280;59881;36.722;-4.462;2023-01-01T01:07:52;101774.72;;;9.71;50.99
60725;BME280;59881;36.722;-4.462;2023-01-01T01:10:18;101865.53;;;10.20;51.00
60725;BME280;59881;36.722;-4.462;2023-01-01T01:12:46;101361.31;;;7.15;51.14
60725;BME280;59881;36.722;-4.462;2023-01-01T01:15:12;101871.09;;;10.13;51.56
60725;BME280;59881;36.722;-4.462;2023-01-01T01:17:39;101856.59;;;9.45;51.29
60725;BME280;59881;36.722;-4.462;2023-01-01T01:20:05;101382.19;;;7.17;51.66
60725;BME280;59881;36.722;-4.462;2023-01-01T01:22:32;101853.03;;;10.06;51.79
60725;BME280;59881;36.722;-4.462;2023-01-01T01:24:59;101846.03;;;10.05;51.51
60725;BME280;59881;36.722;-4.462;2023-01-01T01:27:25;101861.91;;;10.03;51.64
60725;BME280;59881;36.722;-4.462;2023-01-01T01:29:51;101862.03;;;10.00;52.05
60725;BME280;59881;36.722;-4.462;2023-01-01T01:32:17;101832.19;;;9.81;51.68
60725;BME280;59881;36.722;-4.462;2023-01-01T01:34:43;101794.84;;;9.53;51.94
60725;BME280;59881;36.722;-4.462;2023-01-01T01:37:09;101822.25;;;9.68;52.30
60725;BME280;59881;36.722;-4.462;2023-01-01T01:39:36;101866.25;;;9.85;52.68
60725;BME280;59881;36.722;-4.462;2023-01-01T01:42:02;101860.31;;;9.80;52.82
60725;BME280;59881;36.722;-4.462;2023-01-01T01:44:51;101861.44;;;9.74;52.96
60725;BME280;59881;36.722;-4.462;2023-01-01T01:47:24;101857.09;;;9.73;53.04
60725;BME280;59881;36.722;-4.462;2023-01-01T01:52:40;101742.72;;;9.03;53.26
60725;BME280;59881;36.722;-4.462;2023-01-01T01:55:08;101853.19;;;9.82;52.79
60725;BME280;59881;36.722;-4.462;2023-01-01T01:57:36;101855.63;;;9.87;52.25
60725;BME280;59881;36.722;-4.462;2023-01-01T02:00:03;101791.56;;;9.48;52.09
60725;BME280;59881;36.722;-4.462;2023-01-01T02:02:35;101829.19;;;9.69;51.37
60725;BME280;59881;36.722;-4.462;2023-01-01T02:05:02;101442.44;;;7.18;50.46
60725;BME280;59881;36.722;-4.462;2023-01-01T02:07:29;101852.00;;;9.89;50.11
60725;BME280;59881;36.722;-4.462;2023-01-01T02:09:56;101206.28;;;6.00;49.64
60725;BME280;59881;36.722;-4.462;2023-01-01T02:12:23;101745.16;;;9.27;49.67
60725;BME280;59881;36.722;-4.462;2023-01-01T02:14:48;101329.56;;;6.80;49.40
60725;BME280;59881;36.722;-4.462;2023-01-01T02:17:26;101839.81;;;9.87;49.46
60725;BME280;59881;36.722;-4.462;2023-01-01T02:28:47;101728.63;;;9.04;49.54
60725;BME280;59881;36.722;-4.462;2023-01-01T02:31:19;101842.72;;;9.62;49.59
60725;BME280;59881;36.722;-4.462;2023-01-01T02:33:48;101832.59;;;9.52;50.22
60725;BME280;59881;36.722;-4.462;2023-01-01T02:36:15;101829.28;;;9.47;51.10
60725;BME280;59881;36.722;-4.462;2023-01-01T02:38:45;101507.75;;;7.45;51.27
60725;BME280;59881;36.722;-4.462;2023-01-01T02:41:21;101517.75;;;7.57;51.78
60725;BME280;59881;36.722;-4.462;2023-01-01T02:43:50;101762.41;;;8.93;52.16
60725;BME280;59881;36.722;-4.462;2023-01-01T02:46:16;101830.16;;;9.27;52.38
60725;BME280;59881;36.722;-4.462;2023-01-01T02:48:48;101825.84;;;9.26;52.58
60725;BME280;59881;36.722;-4.462;2023-01-01T02:54:07;101808.47;;;9.02;52.63
60725;BME280;59881;36.722;-4.462;2023-01-01T03:08:09;101818.75;;;9.08;53.61
60725;BME280;59881;36.722;-4.462;2023-01-01T03:10:54;101816.13;;;9.08;54.02
60725;BME280;59881;36.722;-4.462;2023-01-01T03:13:34;101720.28;;;8.54;54.20
60725;BME280;59881;36.722;-4.462;2023-01-01T03:16:10;101802.88;;;9.09;54.20
60725;BME280;59881;36.722;-4.462;2023-01-01T03:18:59;101800.06;;;9.14;53.98
60725;BME280;59881;36.722;-4.462;2023-01-01T03:21:54;101800.72;;;9.19;53.39
60725;BME280;59881;36.722;-4.462;2023-01-01T03:30:14;101565.28;;;7.92;52.54
60725;BME280;59881;36.722;-4.462;2023-01-01T03:32:46;101756.56;;;9.07;52.00
60725;BME280;59881;36.722;-4.462;2023-01-01T03:35:57;101793.09;;;9.33;51.52
60725;BME280;59881;36.722;-4.462;2023-01-01T03:38:30;101188.38;;;5.66;50.93
60725;BME280;59881;36.722;-4.462;2023-01-01T03:41:04;101782.72;;;9.30;51.10
60725;BME280;59881;36.722;-4.462;2023-01-01T03:46:21;101644.06;;;8.33;51.78
60725;BME280;59881;36.722;-4.462;2023-01-01T03:48:49;101617.00;;;8.11;52.18
60725;BME280;59881;36.722;-4.462;2023-01-01T03:54:27;101775.00;;;9.05;52.73
60725;BME280;59881;36.722;-4.462;2023-01-01T04:00:04;101776.88;;;9.03;52.49
60725;BME280;59881;36.722;-4.462;2023-01-01T04:02:39;101776.28;;;8.97;52.57
60725;BME280;59881;36.722;-4.462;2023-01-01T04:05:08;101774.69;;;8.93;52.82
60725;BME280;59881;36.722;-4.462;2023-01-01T04:07:37;101746.69;;;8.71;53.13
60725;BME280;59881;36.722;-4.462;2023-01-01T04:10:04;101240.53;;;5.69;52.89
60725;BME280;59881;36.722;-4.462;2023-01-01T04:12:54;101634.22;;;7.96;53.10
60725;BME280;59881;36.722;-4.462;2023-01-01T04:15:25;101781.19;;;8.84;53.46
60725;BME280;59881;36.722;-4.462;2023-01-01T04:17:52;101781.41;;;8.79;53.52
60725;BME280;59881;36.722;-4.462;2023-01-01T04:20:18;101777.13;;;8.77;53.54
60725;BME280;59881;36.722;-4.462;2023-01-01T04:22:44;101704.25;;;8.38;53.55
60725;BME280;59881;36.722;-4.462;2023-01-01T04:25:10;101909.25;;;8.79;53.47
60725;BME280;59881;36.722;-4.462;2023-01-01T04:27:37;101774.41;;;8.78;53.40
60725;BME280;59881;36.722;-4.462;2023-01-01T04:30:04;101329.56;;;6.13;53.13
60725;BME280;59881;36.722;-4.462;2023-01-01T04:32:30;101270.38;;;5.87;53.03
60725;BME280;59881;36.722;-4.462;2023-01-01T04:34:56;101779.59;;;8.80;53.46
60725;BME280;59881;36.722;-4.462;2023-01-01T04:37:21;101775.41;;;8.76;53.51
60725;BME280;59881;36.722;-4.462;2023-01-01T04:39:47;101734.56;;;8.46;53.58
60725;BME280;59881;36.722;-4.462;2023-01-01T04:42:12;101702.22;;;8.24;53.61
60725;BME280;59881;36.722;-4.462;2023-01-01T04:44:38;101772.22;;;8.67;53.73
60725;BME280;59881;36.722;-4.462;2023-01-01T04:47:03;101830.81;;;8.47;53.85
60725;BME280;59881;36.722;-4.462;2023-01-01T04:49:29;101768.69;;;8.68;53.94
60725;BME280;59881;36.722;-4.462;2023-01-01T04:51:54;101452.97;;;6.00;54.12
60725;BME280;59881;36.722;-4.462;2023-01-01T04:54:20;101778.16;;;8.73;54.08
60725;BME280;59881;36.722;-4.462;2023-01-01T04:56:45;101646.56;;;7.94;54.03
60725;BME280;59881;36.722;-4.462;2023-01-01T04:59:11;101757.59;;;8.62;54.27
60725;BME280;59881;36.722;-4.462;2023-01-01T05:01:36;101897.72;;;8.61;54.37
60725;BME280;59881;36.722;-4.462;2023-01-01T05:04:02;101696.63;;;8.32;54.24
60725;BME280;59881;36.722;-4.462;2023-01-01T05:06:28;101316.13;;;6.00;53.95
60725;BME280;59881;36.722;-4.462;2023-01-01T05:08:55;101786.81;;;8.97;54.48
60725;BME280;59881;36.722;-4.462;2023-01-01T05:11:28;101785.72;;;9.01;54.45
60725;BME280;59881;36.722;-4.462;2023-01-01T05:13:56;101781.41;;;9.00;54.50
60725;BME280;59881;36.722;-4.462;2023-01-01T05:16:24;101780.66;;;8.96;54.38
60725;BME280;59881;36.722;-4.462;2023-01-01T05:18:50;101798.13;;;8.33;54.50
60725;BME280;59881;36.722;-4.462;2023-01-01T05:21:37;101773.22;;;8.85;54.93
60725;BME280;59881;36.722;-4.462;2023-01-01T05:24:08;101780.25;;;8.85;55.04
60725;BME280;59881;36.722;-4.462;2023-01-01T05:26:37;101781.19;;;8.84;55.33
60725;BME280;59881;36.722;-4.462;2023-01-01T05:29:03;101632.59;;;7.93;55.33
60725;BME280;59881;36.722;-4.462;2023-01-01T05:31:32;102076.41;;;8.83;55.61
60725;BME280;59881;36.722;-4.462;2023-01-01T05:33:58;101810.00;;;8.43;55.44
60725;BME280;59881;36.722;-4.462;2023-01-01T05:36:29;101776.06;;;8.81;55.47
60725;BME280;59881;36.722;-4.462;2023-01-01T05:38:56;101782.09;;;8.83;55.52
60725;BME280;59881;36.722;-4.462;2023-01-01T05:41:24;101785.59;;;8.83;55.25
60725;BME280;59881;36.722;-4.462;2023-01-01T05:43:50;101782.09;;;8.83;55.24
60725;BME280;59881;36.722;-4.462;2023-01-01T05:46:18;101788.34;;;8.80;55.22
60725;BME280;59881;36.722;-4.462;2023-01-01T05:48:44;101782.28;;;8.78;55.62
60725;BME280;59881;36.722;-4.462;2023-01-01T05:51:18;101779.56;;;8.81;55.36
60725;BME280;59881;36.722;-4.462;2023-01-01T05:53:44;101763.78;;;8.81;55.12
60725;BME280;59881;36.722;-4.462;2023-01-01T05:56:11;101667.19;;;8.23;54.95
60725;BME280;59881;36.722;-4.462;2023-01-01T05:58:37;101777.63;;;8.85;54.96
60725;BME280;59881;36.722;-4.462;2023-01-01T06:01:11;101758.84;;;8.74;54.45
60725;BME280;59881;36.722;-4.462;2023-01-01T06:03:38;101774.09;;;8.86;54.78
60725;BME280;59881;36.722;-4.462;2023-01-01T06:06:05;101770.28;;;8.93;54.30
60725;BME280;59881;36.722;-4.462;2023-01-01T06:08:31;101781.53;;;8.97;53.82
60725;BME280;59881;36.722;-4.462;2023-01-01T06:11:02;101776.34;;;8.95;53.73
60725;BME280;59881;36.722;-4.462;2023-01-01T06:13:28;101254.84;;;5.82;53.59
60725;BME280;59881;36.722;-4.462;2023-01-01T06:15:59;101785.88;;;8.98;53.54
60725;BME280;59881;36.722;-4.462;2023-01-01T06:18:25;101802.47;;;8.98;53.40
60725;BME280;59881;36.722;-4.462;2023-01-01T06:20:53;101729.88;;;8.55;53.30
60725;BME280;59881;36.722;-4.462;2023-01-01T06:23:18;101422.84;;;6.61;52.89
60725;BME280;59881;36.722;-4.462;2023-01-01T06:25:44;101444.75;;;6.82;53.03
60725;BME280;59881;36.722;-4.462;2023-01-01T06:28:10;101826.09;;;9.00;53.02
60725;BME280;59881;36.722;-4.462;2023-01-01T06:30:36;101700.84;;;8.36;53.13
60725;BME280;59881;36.722;-4.462;2023-01-01T06:33:02;101291.00;;;5.96;52.89
60725;BME280;59881;36.722;-4.462;2023-01-01T06:35:28;101704.56;;;8.52;52.67
60725;BME280;59881;36.722;-4.462;2023-01-01T06:37:53;101478.88;;;7.24;52.84
60725;BME280;59881;36.722;-4.462;2023-01-01T06:40:19;101795.19;;;9.25;52.84
60725;BME280;59881;36.722;-4.462;2023-01-01T06:42:44;101795.78;;;9.32;52.61
60725;BME280;59881;36.722;-4.462;2023-01-01T06:45:10;101792.03;;;9.38;52.41
60725;BME280;59881;36.722;-4.462;2023-01-01T06:47:37;101797.28;;;9.38;52.38
60725;BME280;59881;36.722;-4.462;2023-01-01T06:50:04;101516.22;;;7.30;52.37
60725;BME280;59881;36.722;-4.462;2023-01-01T06:52:30;101796.66;;;9.32;52.44
60725;BME280;59881;36.722;-4.462;2023-01-01T06:54:56;101808.22;;;9.28;52.68
60725;BME280;59881;36.722;-4.462;2023-01-01T06:57:22;101818.75;;;9.28;53.17
60725;BME280;59881;36.722;-4.462;2023-01-01T06:59:48;101272.59;;;5.97;52.99
60725;BME280;59881;36.722;-4.462;2023-01-01T07:02:13;101067.53;;;4.66;53.22
60725;BME280;59881;36.722;-4.462;2023-01-01T07:04:39;101759.63;;;8.76;53.44
60725;BME280;59881;36.722;-4.462;2023-01-01T07:07:05;101489.16;;;7.07;53.57
60725;BME280;59881;36.722;-4.462;2023-01-01T07:09:30;101829.16;;;9.09;53.89
60725;BME280;59881;36.722;-4.462;2023-01-01T07:11:56;101829.38;;;9.05;54.26
60725;BME280;59881;36.722;-4.462;2023-01-01T07:14:21;101800.38;;;8.86;54.37
60725;BME280;59881;36.722;-4.462;2023-01-01T07:16:47;101638.88;;;7.89;54.42
60725;BME280;59881;36.722;-4.462;2023-01-01T07:19:12;101749.22;;;8.52;54.79
60725;BME280;59881;36.722;-4.462;2023-01-01T07:21:44;101786.03;;;8.73;54.84
60725;BME280;59881;36.722;-4.462;2023-01-01T07:24:11;101826.28;;;8.95;54.76
60725;BME280;59881;36.722;-4.462;2023-01-01T07:26:38;101932.31;;;8.94;54.77
60725;BME280;59881;36.722;-4.462;2023-01-01T07:29:05;101381.31;;;6.28;54.74
60725;BME280;59881;36.722;-4.462;2023-01-01T07:31:33;101906.72;;;8.77;55.02
60725;BME280;59881;36.722;-4.462;2023-01-01T07:33:59;101703.81;;;8.28;55.31
60725;BME280;59881;36.722;-4.462;2023-01-01T07:36:25;101547.13;;;7.43;55.46
60725;BME280;59881;36.722;-4.462;2023-01-01T07:38:50;101830.94;;;9.29;55.87
60725;BME280;59881;36.722;-4.462;2023-01-01T07:41:15;101398.72;;;6.97;55.45
60725;BME280;59881;36.722;-4.462;2023-01-01T07:43:41;101400.50;;;7.18;54.89
60725;BME280;59881;36.722;-4.462;2023-01-01T07:46:10;101827.38;;;10.09;54.12
60725;BME280;59881;36.722;-4.462;2023-01-01T07:48:36;101764.63;;;10.19;53.55
60725;BME280;59881;36.722;-4.462;2023-01-01T07:51:02;101736.97;;;10.47;52.72
60725;BME280;59881;36.722;-4.462;2023-01-01T07:53:27;101757.69;;;10.89;51.83
60725;BME280;59881;36.722;-4.462;2023-01-01T07:55:53;101817.19;;;11.63;51.20
60725;BME280;59881;36.722;-4.462;2023-01-01T07:58:18;101742.81;;;11.55;50.12
60725;BME280;59881;36.722;-4.462;2023-01-01T08:00:45;101815.41;;;12.13;49.42
60725;BME280;59881;36.722;-4.462;2023-01-01T08:03:12;101433.72;;;9.85;48.88
60725;BME280;59881;36.722;-4.462;2023-01-01T08:05:37;101727.38;;;11.80;48.51
60725;BME280;59881;36.722;-4.462;2023-01-01T08:08:03;101738.50;;;13.38;47.05
60725;BME280;59881;36.722;-4.462;2023-01-01T08:10:29;101815.00;;;15.22;43.85
60725;BME280;59881;36.722;-4.462;2023-01-01T08:13:03;101297.97;;;11.79;42.83
60725;BME280;59881;36.722;-4.462;2023-01-01T08:15:29;101817.41;;;14.45;43.45
60725;BME280;59881;36.722;-4.462;2023-01-01T08:17:56;101821.00;;;14.02;44.01
60725;BME280;59881;36.722;-4.462;2023-01-01T08:20:22;101737.44;;;13.70;43.87
60725;BME280;59881;36.722;-4.462;2023-01-01T08:22:47;101931.72;;;14.12;43.99
60725;BME280;59881;36.722;-4.462;2023-01-01T08:25:13;101786.06;;;13.69;44.08
60725;BME280;59881;36.722;-4.462;2023-01-01T08:27:38;101830.78;;;13.73;44.42
60725;BME280;59881;36.722;-4.462;2023-01-01T08:30:04;101827.94;;;13.62;44.88
60725;BME280;59881;36.722;-4.462;2023-01-01T08:32:30;101794.84;;;13.40;44.89
60725;BME280;59881;36.722;-4.462;2023-01-01T08:34:55;101826.06;;;13.64;44.85
60725;BME280;59881;36.722;-4.462;2023-01-01T08:37:21;101823.69;;;13.74;44.71
60725;BME280;59881;36.722;-4.462;2023-01-01T08:39:49;101469.97;;;11.73;44.57
60725;BME280;59881;36.722;-4.462;2023-01-01T08:42:14;101788.97;;;13.78;44.66
60725;BME280;59881;36.722;-4.462;2023-01-01T08:44:40;101403.44;;;11.52;44.72
60725;BME280;59881;36.722;-4.462;2023-01-01T08:47:05;101839.72;;;14.28;44.81
60725;BME280;59881;36.722;-4.462;2023-01-01T08:49:31;101833.31;;;14.45;44.87
60725;BME280;59881;36.722;-4.462;2023-01-01T08:51:57;101835.75;;;14.62;44.62
60725;BME280;59881;36.722;-4.462;2023-01-01T08:54:22;101931.47;;;14.72;44.53
60725;BME280;59881;36.722;-4.462;2023-01-01T08:56:48;101657.59;;;13.76;44.28
60725;BME280;59881;36.722;-4.462;2023-01-01T08:59:13;101846.38;;;15.02;43.93
60725;BME280;59881;36.722;-4.462;2023-01-01T09:01:38;101822.94;;;15.09;43.76
60725;BME280;59881;36.722;-4.462;2023-01-01T09:04:04;101843.03;;;15.51;43.13
60725;BME280;59881;36.722;-4.462;2023-01-01T09:06:32;101816.94;;;15.71;42.50
60725;BME280;59881;36.722;-4.462;2023-01-01T09:08:57;101339.50;;;13.15;42.17
60725;BME280;59881;36.722;-4.462;2023-01-01T09:11:25;101793.97;;;16.20;41.50
60725;BME280;59881;36.722;-4.462;2023-01-01T09:13:51;101811.63;;;16.69;41.04
60725;BME280;59881;36.722;-4.462;2023-01-01T09:16:18;101834.34;;;17.32;40.34
60725;BME280;59881;36.722;-4.462;2023-01-01T09:18:43;101836.00;;;17.80;39.49
60725;BME280;59881;36.722;-4.462;2023-01-01T09:21:09;101438.69;;;16.07;38.51
60725;BME280;59881;36.722;-4.462;2023-01-01T09:23:35;101452.78;;;17.84;35.85
60725;BME280;59881;36.722;-4.462;2023-01-01T09:26:05;101753.38;;;20.40;34.01
60725;BME280;59881;36.722;-4.462;2023-01-01T09:28:31;101830.22;;;22.20;32.24
60725;BME280;59881;36.722;-4.462;2023-01-01T09:30:57;101828.63;;;24.04;30.25
60725;BME280;59881;36.722;-4.462;2023-01-01T09:33:22;101893.63;;;24.76;28.69
60725;BME280;59881;36.722;-4.462;2023-01-01T09:35:48;101459.56;;;23.99;26.75
60725;BME280;59881;36.722;-4.462;2023-01-01T09:38:13;101470.25;;;24.23;25.85
60725;BME280;59881;36.722;-4.462;2023-01-01T09:40:57;101832.06;;;26.40;25.33
60725;BME280;59881;36.722;-4.462;2023-01-01T09:46:05;101806.25;;;26.07;25.48
60725;BME280;59881;36.722;-4.462;2023-01-01T09:48:32;101824.53;;;25.96;25.92
60725;BME280;59881;36.722;-4.462;2023-01-01T09:51:03;101746.13;;;26.59;24.79
60725;BME280;59881;36.722;-4.462;2023-01-01T09:53:44;101828.44;;;28.43;23.55
60725;BME280;59881;36.722;-4.462;2023-01-01T09:56:18;101780.38;;;29.71;21.18
60725;BME280;59881;36.722;-4.462;2023-01-01T09:58:44;101826.09;;;31.75;19.26
60725;BME280;59881;36.722;-4.462;2023-01-01T10:01:35;101829.31;;;33.98;17.42
60725;BME280;59881;36.722;-4.462;2023-01-01T10:07:28;101829.38;;;35.41;15.59
60725;BME280;59881;36.722;-4.462;2023-01-01T10:12:55;101348.97;;;34.80;14.32
60725;BME280;59881;36.722;-4.462;2023-01-01T10:15:33;101558.75;;;38.23;12.74
60725;BME280;59881;36.722;-4.462;2023-01-01T10:18:13;101850.09;;;42.19;11.33
60725;BME280;59881;36.722;-4.462;2023-01-01T10:23:42;101779.03;;;43.64;10.28
60725;BME280;59881;36.722;-4.462;2023-01-01T10:26:16;101559.81;;;42.55;10.32
60725;BME280;59881;36.722;-4.462;2023-01-01T10:28:53;101804.44;;;44.75;9.90
60725;BME280;59881;36.722;-4.462;2023-01-01T10:31:37;101803.22;;;46.32;8.92
60725;BME280;59881;36.722;-4.462;2023-01-01T10:34:15;101800.91;;;47.28;8.24
60725;BME280;59881;36.722;-4.462;2023-01-01T10:36:42;101773.59;;;47.07;8.75
60725;BME280;59881;36.722;-4.462;2023-01-01T10:39:14;101773.97;;;46.74;8.42
60725;BME280;59881;36.722;-4.462;2023-01-01T10:41:40;101841.31;;;46.59;8.04
60725;BME280;59881;36.722;-4.462;2023-01-01T10:44:06;101805.00;;;46.28;8.81
60725;BME280;59881;36.722;-4.462;2023-01-01T10:46:33;101797.38;;;45.74;8.79
60725;BME280;59881;36.722;-4.462;2023-01-01T10:49:10;101792.84;;;45.42;9.55
60725;BME280;59881;36.722;-4.462;2023-01-01T10:51:41;101793.84;;;45.46;9.30
60725;BME280;59881;36.722;-4.462;2023-01-01T10:54:31;101784.78;;;45.40;9.38
60725;BME280;59881;36.722;-4.462;2023-01-01T10:56:58;101536.56;;;43.79;9.85
60725;BME280;59881;36.722;-4.462;2023-01-01T10:59:36;101791.91;;;44.77;9.82
60725;BME280;59881;36.722;-4.462;2023-01-01T11:02:17;101795.16;;;37.54;13.79
60725;BME280;59881;36.722;-4.462;2023-01-01T11:04:44;101747.56;;;30.41;18.20
60725;BME280;59881;36.722;-4.462;2023-01-01T11:07:23;101795.16;;;26.56;22.68
60725;BME280;59881;36.722;-4.462;2023-01-01T11:09:50;101783.41;;;24.24;26.03
60725;BME280;59881;36.722;-4.462;2023-01-01T11:12:19;101807.75;;;23.11;28.73
60725;BME280;59881;36.722;-4.462;2023-01-01T11:14:53;101844.78;;;22.18;30.37
60725;BME280;59881;36.722;-4.462;2023-01-01T11:17:22;101804.19;;;22.03;31.48
60725;BME280;59881;36.722;-4.462;2023-01-01T11:19:49;101807.16;;;22.00;30.96
60725;BME280;59881;36.722;-4.462;2023-01-01T11:22:43;101803.81;;;22.16;31.61
60725;BME280;59881;36.722;-4.462;2023-01-01T11:25:27;101788.53;;;22.26;31.33
60725;BME280;59881;36.722;-4.462;2023-01-01T11:33:51;101690.69;;;21.19;30.72
60725;BME280;59881;36.722;-4.462;2023-01-01T11:36:30;101743.09;;;21.97;30.95
60725;BME280;59881;36.722;-4.462;2023-01-01T11:39:25;101787.50;;;21.81;31.02
60725;BME280;59881;36.722;-4.462;2023-01-01T11:41:53;101259.34;;;18.90;31.55
60725;BME280;59881;36.722;-4.462;2023-01-01T11:44:41;101730.22;;;21.55;30.70
60725;BME280;59881;36.722;-4.462;2023-01-01T11:47:29;101753.81;;;21.41;31.72
60725;BME280;59881;36.722;-4.462;2023-01-01T11:52:46;101757.41;;;21.03;32.82
60725;BME280;59881;36.722;-4.462;2023-01-01T11:57:53;101469.66;;;18.46;32.75
60725;BME280;59881;36.722;-4.462;2023-01-01T12:00:21;101696.47;;;20.38;32.85
60725;BME280;59881;36.722;-4.462;2023-01-01T12:03:00;101651.00;;;20.29;33.33
60725;BME280;59881;36.722;-4.462;2023-01-01T12:08:36;101641.66;;;20.62;31.41
60725;BME280;59881;36.722;-4.462;2023-01-01T12:11:20;101729.16;;;21.28;31.48
60725;BME280;59881;36.722;-4.462;2023-01-01T12:14:17;101662.50;;;21.15;31.13
60725;BME280;59881;36.722;-4.462;2023-01-01T12:16:51;101713.81;;;21.58;31.29
60725;BME280;59881;36.722;-4.462;2023-01-01T12:19:30;101695.72;;;21.60;30.91
60725;BME280;59881;36.722;-4.462;2023-01-01T12:21:58;100796.63;;;16.05;31.02
60725;BME280;59881;36.722;-4.462;2023-01-01T12:24:32;101694.25;;;21.38;30.73
60725;BME280;59881;36.722;-4.462;2023-01-01T12:27:13;101689.84;;;21.19;30.61
60725;BME280;59881;36.722;-4.462;2023-01-01T12:35:41;101663.63;;;21.13;28.85
60725;BME280;59881;36.722;-4.462;2023-01-01T12:38:35;101626.09;;;20.85;28.15
60725;BME280;59881;36.722;-4.462;2023-01-01T12:44:12;101637.28;;;20.61;29.20
60725;BME280;59881;36.722;-4.462;2023-01-01T12:57:35;101553.31;;;18.96;30.27
60725;BME280;59881;36.722;-4.462;2023-01-01T13:00:11;101573.56;;;18.99;29.29
60725;BME280;59881;36.722;-4.462;2023-01-01T13:02:45;101572.19;;;19.05;28.66
60725;BME280;59881;36.722;-4.462;2023-01-01T13:05:16;101607.28;;;19.31;28.15
60725;BME280;59881;36.722;-4.462;2023-01-01T13:07:46;100755.66;;;14.18;28.12
60725;BME280;59881;36.722;-4.462;2023-01-01T13:10:26;101608.56;;;19.46;27.75
60725;BME280;59881;36.722;-4.462;2023-01-01T13:12:53;101608.84;;;19.53;27.68
60725;BME280;59881;36.722;-4.462;2023-01-01T13:20:44;101597.88;;;19.56;27.21
60725;BME280;59881;36.722;-4.462;2023-01-01T13:31:15;101587.19;;;19.46;25.25
60725;BME280;59881;36.722;-4.462;2023-01-01T13:33:41;100880.00;;;15.20;25.77
60725;BME280;59881;36.722;-4.462;2023-01-01T13:49:24;101553.53;;;19.24;25.49
60725;BME280;59881;36.722;-4.462;2023-01-01T13:57:35;101557.00;;;19.15;25.78
60725;BME280;59881;36.722;-4.462;2023-01-01T14:00:23;101553.25;;;19.17;25.95
60725;BME280;59881;36.722;-4.462;2023-01-01T14:02:58;101479.03;;;18.71;26.30
60725;BME280;59881;36.722;-4.462;2023-01-01T14:05:46;101548.81;;;18.97;26.04
60725;BME280;59881;36.722;-4.462;2023-01-01T14:08:37;101555.66;;;18.80;26.13
60725;BME280;59881;36.722;-4.462;2023-01-01T14:11:20;101428.41;;;17.88;26.52
60725;BME280;59881;36.722;-4.462;2023-01-01T14:13:46;101549.19;;;18.52;26.63
60725;BME280;59881;36.722;-4.462;2023-01-01T14:16:12;101402.78;;;17.55;26.60
60725;BME280;59881;36.722;-4.462;2023-01-01T14:18:49;101555.56;;;18.39;26.63
60725;BME280;59881;36.722;-4.462;2023-01-01T14:21:21;101518.06;;;18.10;26.56
60725;BME280;59881;36.722;-4.462;2023-01-01T14:23:49;101548.09;;;18.33;26.77
60725;BME280;59881;36.722;-4.462;2023-01-01T14:26:18;101725.13;;;18.32;27.02
60725;BME280;59881;36.722;-4.462;2023-01-01T14:28:45;101471.69;;;17.81;26.93
60725;BME280;59881;36.722;-4.462;2023-01-01T14:31:23;101414.09;;;17.47;27.17
60725;BME280;59881;36.722;-4.462;2023-01-01T14:33:50;101549.38;;;18.39;27.19
60725;BME280;59881;36.722;-4.462;2023-01-01T14:36:25;100735.22;;;13.41;27.29
60725;BME280;59881;36.722;-4.462;2023-01-01T14:38:53;101593.91;;;18.38;27.47
60725;BME280;59881;36.722;-4.462;2023-01-01T14:41:28;101522.78;;;17.65;27.30
60725;BME280;59881;36.722;-4.462;2023-01-01T14:44:03;101555.75;;;18.48;27.41
60725;BME280;59881;36.722;-4.462;2023-01-01T14:46:30;101525.25;;;18.40;27.25
60725;BME280;59881;36.722;-4.462;2023-01-01T14:49:00;101309.00;;;17.09;27.57
60725;BME280;59881;36.722;-4.462;2023-01-01T14:51:29;101514.25;;;18.34;27.04
60725;BME280;59881;36.722;-4.462;2023-01-01T14:54:01;101514.16;;;18.35;27.36
60725;BME280;59881;36.722;-4.462;2023-01-01T14:56:32;101551.16;;;18.59;27.24
60725;BME280;59881;36.722;-4.462;2023-01-01T14:59:26;101549.38;;;18.60;27.13